sensor_id;sensor_type;location;lat;lon;timestamp;pressure;altitude;pressure_sealevel;temperature;humidity
47726;BME280;33483;48.294;16.388;2023-04-05T00:00:10;100228.00;;;-1.81;88.12
47726;BME280;33483;48.294;16.388;2023-04-05T00:02:58;100217.22;;;-1.84;88.15
47726;BME280;33483;48.294;16.388;2023-04-05T00:05:29;100223.84;;;-1.85;89.37
47726;BME280;33483;48.294;16.388;2023-04-05T00:07:56;100207.22;;;-1.87;90.37
47726;BME280;33483;48.294;16.388;2023-04-05T00:10:26;100209.25;;;-1.91;91.51
47726;BME280;33483;48.294;16.388;2023-04-05T00:12:57;100209.34;;;-1.95;91.74
47726;BME280;33483;48.294;16.388;2023-04-05T00:15:26;100209.34;;;-1.95;92.11
47726;BME280;33483;48.294;16.388;2023-04-05T00:17:53;100202.81;;;-1.97;91.58
47726;BME280;33483;48.294;16.388;2023-04-05T00:20:21;100202.41;;;-1.96;89.75
47726;BME280;33483;48.294;16.388;2023-04-05T00:22:48;100204.34;;;-1.96;90.43
47726;BME280;33483;48.294;16.388;2023-04-05T00:25:16;100197.72;;;-1.95;88.89
47726;BME280;33483;48.294;16.388;2023-04-05T00:27:44;100199.25;;;-1.94;88.52
47726;BME280;33483;48.294;16.388;2023-04-05T00:30:11;100199.59;;;-1.92;87.55
47726;BME280;33483;48.294;16.388;2023-04-05T00:32:39;100196.09;;;-1.93;86.79
47726;BME280;33483;48.294;16.388;2023-04-05T00:35:06;100194.59;;;-1.94;86.71
47726;BME280;33483;48.294;16.388;2023-04-05T00:37:33;100192.31;;;-1.95;86.92
47726;BME280;33483;48.294;16.388;2023-04-05T00:40:01;100191.88;;;-1.94;87.57
47726;BME280;33483;48.294;16.388;2023-04-05T00:42:28;100205.03;;;-1.92;86.88
47726;BME280;33483;48.294;16.388;2023-04-05T00:44:55;100198.81;;;-1.93;86.18
47726;BME280;33483;48.294;16.388;2023-04-05T00:47:24;100196.97;;;-1.96;85.91
47726;BME280;33483;48.294;16.388;2023-04-05T00:49:52;100193.47;;;-1.96;85.50
47726;BME280;33483;48.294;16.388;2023-04-05T00:52:19;100193.47;;;-1.96;86.41
47726;BME280;33483;48.294;16.388;2023-04-05T00:54:50;100189.59;;;-1.95;85.48
47726;BME280;33483;48.294;16.388;2023-04-05T00:57:17;100197.72;;;-1.95;89.57
47726;BME280;33483;48.294;16.388;2023-04-05T00:59:45;100189.91;;;-1.93;88.90
47726;BME280;33483;48.294;16.388;2023-04-05T01:02:15;100195.34;;;-1.93;89.64
47726;BME280;33483;48.294;16.388;2023-04-05T01:04:45;100192.41;;;-1.99;88.93
47726;BME280;33483;48.294;16.388;2023-04-05T01:10:05;100187.06;;;-2.02;91.50
47726;BME280;33483;48.294;16.388;2023-04-05T01:12:38;100194.00;;;-2.01;89.98
47726;BME280;33483;48.294;16.388;2023-04-05T01:15:05;100181.72;;;-2.06;91.44
47726;BME280;33483;48.294;16.388;2023-04-05T01:17:33;100184.81;;;-2.07;93.24
47726;BME280;33483;48.294;16.388;2023-04-05T01:20:06;100192.66;;;-2.09;93.18
47726;BME280;33483;48.294;16.388;2023-04-05T01:25:26;100192.06;;;-2.01;88.81
47726;BME280;33483;48.294;16.388;2023-04-05T01:30:34;100181.44;;;-1.95;85.87
47726;BME280;33483;48.294;16.388;2023-04-05T01:38:27;100184.25;;;-1.99;87.70
47726;BME280;33483;48.294;16.388;2023-04-05T01:40:55;100177.69;;;-2.01;87.17
47726;BME280;33483;48.294;16.388;2023-04-05T01:43:22;100180.75;;;-1.99;86.54
47726;BME280;33483;48.294;16.388;2023-04-05T01:45:49;100176.19;;;-2.02;87.08
47726;BME280;33483;48.294;16.388;2023-04-05T01:48:16;100175.31;;;-1.99;85.90
47726;BME280;33483;48.294;16.388;2023-04-05T01:50:44;100179.91;;;-1.96;85.68
47726;BME280;33483;48.294;16.388;2023-04-05T01:53:12;100179.91;;;-1.96;85.93
47726;BME280;33483;48.294;16.388;2023-04-05T01:55:42;100179.03;;;-1.93;85.13
47726;BME280;33483;48.294;16.388;2023-04-05T01:58:10;100176.31;;;-1.93;85.65
47726;BME280;33483;48.294;16.388;2023-04-05T02:00:38;100179.03;;;-1.93;86.83
47726;BME280;33483;48.294;16.388;2023-04-05T02:03:05;100179.91;;;-1.96;86.78
47726;BME280;33483;48.294;16.388;2023-04-05T02:05:33;100189.59;;;-1.95;87.45
47726;BME280;33483;48.294;16.388;2023-04-05T02:08:01;100187.78;;;-2.02;87.22
47726;BME280;33483;48.294;16.388;2023-04-05T02:10:29;100185.16;;;-2.05;88.14
47726;BME280;33483;48.294;16.388;2023-04-05T02:12:56;100181.72;;;-2.06;89.19
47726;BME280;33483;48.294;16.388;2023-04-05T02:15:23;100183.31;;;-2.08;90.58
47726;BME280;33483;48.294;16.388;2023-04-05T02:17:50;100185.03;;;-2.14;91.23
47726;BME280;33483;48.294;16.388;2023-04-05T02:20:20;100181.97;;;-2.16;90.30
47726;BME280;33483;48.294;16.388;2023-04-05T02:22:47;100172.28;;;-2.17;91.83
47726;BME280;33483;48.294;16.388;2023-04-05T02:25:18;100180.78;;;-2.15;89.81
47726;BME280;33483;48.294;16.388;2023-04-05T02:27:45;100170.25;;;-2.13;89.96
47726;BME280;33483;48.294;16.388;2023-04-05T02:30:13;100169.56;;;-2.17;91.64
47726;BME280;33483;48.294;16.388;2023-04-05T02:32:41;100170.78;;;-2.18;91.69
47726;BME280;33483;48.294;16.388;2023-04-05T02:35:09;100170.78;;;-2.18;90.59
47726;BME280;33483;48.294;16.388;2023-04-05T02:37:36;100166.50;;;-2.19;90.73
47726;BME280;33483;48.294;16.388;2023-04-05T02:40:06;100166.50;;;-2.19;91.14
47726;BME280;33483;48.294;16.388;2023-04-05T02:42:41;100168.56;;;-2.23;92.28
47726;BME280;33483;48.294;16.388;2023-04-05T02:45:08;100157.72;;;-2.23;92.59
47726;BME280;33483;48.294;16.388;2023-04-05T02:47:36;100152.63;;;-2.21;92.08
47726;BME280;33483;48.294;16.388;2023-04-05T02:50:03;100170.78;;;-2.18;92.46
47726;BME280;33483;48.294;16.388;2023-04-05T02:52:39;100164.13;;;-2.17;91.04
47726;BME280;33483;48.294;16.388;2023-04-05T02:55:07;100167.19;;;-2.15;90.11
47726;BME280;33483;48.294;16.388;2023-04-05T02:57:35;100159.81;;;-2.15;89.78
47726;BME280;33483;48.294;16.388;2023-04-05T03:00:18;100160.25;;;-2.16;90.77
47726;BME280;33483;48.294;16.388;2023-04-05T03:02:46;100154.47;;;-2.18;90.42
47726;BME280;33483;48.294;16.388;2023-04-05T03:05:15;100147.03;;;-2.14;89.25
47726;BME280;33483;48.294;16.388;2023-04-05T03:07:49;100155.47;;;-2.12;90.39
47726;BME280;33483;48.294;16.388;2023-04-05T03:10:22;100153.63;;;-2.15;89.88
47726;BME280;33483;48.294;16.388;2023-04-05T03:13:00;100149.06;;;-2.18;89.36
47726;BME280;33483;48.294;16.388;2023-04-05T03:15:30;100152.53;;;-2.18;89.80
47726;BME280;33483;48.294;16.388;2023-04-05T03:18:04;100151.34;;;-2.17;89.65
47726;BME280;33483;48.294;16.388;2023-04-05T03:20:33;100154.91;;;-2.20;89.49
47726;BME280;33483;48.294;16.388;2023-04-05T03:23:02;100146.34;;;-2.18;89.97
47726;BME280;33483;48.294;16.388;2023-04-05T03:25:32;100150.22;;;-2.19;90.09
47726;BME280;33483;48.294;16.388;2023-04-05T03:28:02;100141.44;;;-2.23;91.31
47726;BME280;33483;48.294;16.388;2023-04-05T03:30:33;100155.00;;;-2.23;90.99
47726;BME280;33483;48.294;16.388;2023-04-05T03:33:12;100154.22;;;-2.24;91.65
47726;BME280;33483;48.294;16.388;2023-04-05T03:35:43;100139.16;;;-2.25;89.67
47726;BME280;33483;48.294;16.388;2023-04-05T03:38:14;100142.59;;;-2.24;90.28
47726;BME280;33483;48.294;16.388;2023-04-05T03:40:54;100149.91;;;-2.21;89.19
47726;BME280;33483;48.294;16.388;2023-04-05T03:43:22;100145.56;;;-2.19;89.09
47726;BME280;33483;48.294;16.388;2023-04-05T03:45:49;100155.66;;;-2.19;88.44
47726;BME280;33483;48.294;16.388;2023-04-05T03:48:16;100161.09;;;-2.19;88.44
47726;BME280;33483;48.294;16.388;2023-04-05T03:50:47;100154.91;;;-2.20;86.91
47726;BME280;33483;48.294;16.388;2023-04-05T03:53:19;100157.19;;;-2.18;87.96
47726;BME280;33483;48.294;16.388;2023-04-05T03:55:49;100157.19;;;-2.18;87.65
47726;BME280;33483;48.294;16.388;2023-04-05T03:58:47;100158.72;;;-2.17;87.05
47726;BME280;33483;48.294;16.388;2023-04-05T04:01:18;100163.78;;;-2.19;86.79
47726;BME280;33483;48.294;16.388;2023-04-05T04:03:45;100162.28;;;-2.20;87.46
47726;BME280;33483;48.294;16.388;2023-04-05T04:06:12;100165.00;;;-2.20;87.72
47726;BME280;33483;48.294;16.388;2023-04-05T04:08:43;100155.75;;;-2.23;90.58
47726;BME280;33483;48.294;16.388;2023-04-05T04:11:10;100153.88;;;-2.26;89.06
47726;BME280;33483;48.294;16.388;2023-04-05T04:13:39;100154.66;;;-2.25;90.01
47726;BME280;33483;48.294;16.388;2023-04-05T04:16:15;100160.09;;;-2.25;89.18
47726;BME280;33483;48.294;16.388;2023-04-05T04:18:56;100152.63;;;-2.21;88.12
47726;BME280;33483;48.294;16.388;2023-04-05T04:21:23;100159.56;;;-2.20;89.24
47726;BME280;33483;48.294;16.388;2023-04-05T04:24:10;100151.84;;;-2.22;88.02
47726;BME280;33483;48.294;16.388;2023-04-05T04:26:52;100144.16;;;-2.23;89.04
47726;BME280;33483;48.294;16.388;2023-04-05T04:29:29;100156.50;;;-2.22;88.55
47726;BME280;33483;48.294;16.388;2023-04-05T04:32:23;100155.34;;;-2.21;89.23
47726;BME280;33483;48.294;16.388;2023-04-05T04:35:33;100153.38;;;-2.21;88.92
47726;BME280;33483;48.294;16.388;2023-04-05T04:38:44;100161.84;;;-2.19;88.46
47726;BME280;33483;48.294;16.388;2023-04-05T04:41:32;100152.94;;;-2.19;88.79
47726;BME280;33483;48.294;16.388;2023-04-05T04:44:24;100152.53;;;-2.18;89.60
47726;BME280;33483;48.294;16.388;2023-04-05T04:47:26;100152.94;;;-2.19;90.25
47726;BME280;33483;48.294;16.388;2023-04-05T04:50:18;100155.91;;;-2.14;87.91
47726;BME280;33483;48.294;16.388;2023-04-05T04:52:46;100153.44;;;-2.08;87.94
47726;BME280;33483;48.294;16.388;2023-04-05T04:55:16;100151.50;;;-2.08;88.61
47726;BME280;33483;48.294;16.388;2023-04-05T04:57:52;100151.84;;;-2.06;89.75
47726;BME280;33483;48.294;16.388;2023-04-05T05:00:20;100145.97;;;-2.04;90.70
47726;BME280;33483;48.294;16.388;2023-04-05T05:02:49;100149.69;;;-1.98;88.70
47726;BME280;33483;48.294;16.388;2023-04-05T05:05:17;100146.03;;;-1.92;90.92
47726;BME280;33483;48.294;16.388;2023-04-05T05:07:49;100159.53;;;-1.88;90.47
47726;BME280;33483;48.294;16.388;2023-04-05T05:10:16;100158.94;;;-1.67;89.89
47726;BME280;33483;48.294;16.388;2023-04-05T05:12:45;100151.66;;;-1.17;86.47
47726;BME280;33483;48.294;16.388;2023-04-05T05:15:16;100154.19;;;-1.09;84.78
47726;BME280;33483;48.294;16.388;2023-04-05T05:17:44;100155.84;;;-0.87;80.32
47726;BME280;33483;48.294;16.388;2023-04-05T05:20:11;100148.88;;;-0.75;79.85
47726;BME280;33483;48.294;16.388;2023-04-05T05:22:43;100156.78;;;-0.31;74.76
47726;BME280;33483;48.294;16.388;2023-04-05T05:25:12;100158.13;;;-0.48;74.02
47726;BME280;33483;48.294;16.388;2023-04-05T05:27:40;100156.63;;;-0.74;78.00
47726;BME280;33483;48.294;16.388;2023-04-05T05:30:08;100152.34;;;-0.50;74.68
47726;BME280;33483;48.294;16.388;2023-04-05T05:32:35;100150.25;;;0.14;69.69
47726;BME280;33483;48.294;16.388;2023-04-05T05:35:04;100155.38;;;0.33;68.24
47726;BME280;33483;48.294;16.388;2023-04-05T05:37:32;100161.16;;;0.57;67.09
47726;BME280;33483;48.294;16.388;2023-04-05T05:39:59;100158.38;;;1.40;63.32
47726;BME280;33483;48.294;16.388;2023-04-05T05:42:27;100159.16;;;2.07;58.53
47726;BME280;33483;48.294;16.388;2023-04-05T05:44:54;100161.09;;;1.97;59.19
47726;BME280;33483;48.294;16.388;2023-04-05T05:47:21;100161.13;;;1.40;60.91
47726;BME280;33483;48.294;16.388;2023-04-05T05:49:48;100157.72;;;0.87;63.96
47726;BME280;33483;48.294;16.388;2023-04-05T05:52:16;100161.69;;;0.64;65.86
47726;BME280;33483;48.294;16.388;2023-04-05T05:54:43;100161.03;;;0.39;67.55
47726;BME280;33483;48.294;16.388;2023-04-05T05:57:10;100161.22;;;0.23;67.67
47726;BME280;33483;48.294;16.388;2023-04-05T05:59:40;100166.94;;;0.03;68.49
47726;BME280;33483;48.294;16.388;2023-04-05T06:02:07;100154.34;;;-0.04;70.00
47726;BME280;33483;48.294;16.388;2023-04-05T06:04:35;100162.81;;;0.33;68.61
47726;BME280;33483;48.294;16.388;2023-04-05T06:07:03;100164.97;;;0.38;67.36
47726;BME280;33483;48.294;16.388;2023-04-05T06:09:31;100165.59;;;0.42;67.16
47726;BME280;33483;48.294;16.388;2023-04-05T06:12:01;100160.78;;;0.67;65.11
47726;BME280;33483;48.294;16.388;2023-04-05T06:14:28;100161.56;;;0.98;64.97
47726;BME280;33483;48.294;16.388;2023-04-05T06:16:56;100164.47;;;1.04;65.19
47726;BME280;33483;48.294;16.388;2023-04-05T06:19:23;100165.84;;;1.39;65.16
47726;BME280;33483;48.294;16.388;2023-04-05T06:21:51;100171.31;;;1.39;61.45
47726;BME280;33483;48.294;16.388;2023-04-05T06:24:19;100180.34;;;1.67;59.86
47726;BME280;33483;48.294;16.388;2023-04-05T06:26:46;100168.97;;;1.68;58.88
47726;BME280;33483;48.294;16.388;2023-04-05T06:29:13;100176.94;;;1.45;59.31
47726;BME280;33483;48.294;16.388;2023-04-05T06:31:41;100181.63;;;1.44;58.25
47726;BME280;33483;48.294;16.388;2023-04-05T06:34:09;100182.97;;;1.31;58.40
47726;BME280;33483;48.294;16.388;2023-04-05T06:36:36;100188.44;;;1.09;59.14
47726;BME280;33483;48.294;16.388;2023-04-05T06:39:03;100178.84;;;0.95;59.97
47726;BME280;33483;48.294;16.388;2023-04-05T06:41:31;100190.63;;;0.92;58.64
47726;BME280;33483;48.294;16.388;2023-04-05T06:43:58;100186.31;;;0.82;60.05
47726;BME280;33483;48.294;16.388;2023-04-05T06:46:26;100185.25;;;0.80;59.50
47726;BME280;33483;48.294;16.388;2023-04-05T06:48:54;100179.69;;;0.83;61.19
47726;BME280;33483;48.294;16.388;2023-04-05T06:51:24;100176.63;;;0.81;60.32
47726;BME280;33483;48.294;16.388;2023-04-05T06:53:52;100183.28;;;0.80;60.25
47726;BME280;33483;48.294;16.388;2023-04-05T06:56:19;100173.19;;;0.90;61.81
47726;BME280;33483;48.294;16.388;2023-04-05T06:58:47;100167.19;;;1.04;61.20
47726;BME280;33483;48.294;16.388;2023-04-05T07:01:16;100175.56;;;1.09;60.63
47726;BME280;33483;48.294;16.388;2023-04-05T07:03:44;100183.94;;;1.15;61.12
47726;BME280;33483;48.294;16.388;2023-04-05T07:06:14;100180.91;;;1.22;60.96
47726;BME280;33483;48.294;16.388;2023-04-05T07:08:42;100185.53;;;1.34;60.09
47726;BME280;33483;48.294;16.388;2023-04-05T07:11:09;100189.25;;;1.49;61.05
47726;BME280;33483;48.294;16.388;2023-04-05T07:13:38;100186.41;;;1.62;59.53
47726;BME280;33483;48.294;16.388;2023-04-05T07:16:05;100183.09;;;1.76;59.19
47726;BME280;33483;48.294;16.388;2023-04-05T07:18:33;100185.41;;;1.95;59.41
47726;BME280;33483;48.294;16.388;2023-04-05T07:21:00;100179.22;;;2.04;58.75
47726;BME280;33483;48.294;16.388;2023-04-05T07:23:29;100186.34;;;2.10;57.81
47726;BME280;33483;48.294;16.388;2023-04-05T07:26:00;100187.56;;;2.27;57.27
47726;BME280;33483;48.294;16.388;2023-04-05T07:28:31;100181.81;;;2.35;57.03
47726;BME280;33483;48.294;16.388;2023-04-05T07:31:02;100192.13;;;2.30;57.39
47726;BME280;33483;48.294;16.388;2023-04-05T07:33:30;100181.34;;;2.27;57.04
47726;BME280;33483;48.294;16.388;2023-04-05T07:35:57;100184.84;;;2.37;56.09
47726;BME280;33483;48.294;16.388;2023-04-05T07:38:25;100186.16;;;3.70;53.56
47726;BME280;33483;48.294;16.388;2023-04-05T07:40:53;100196.00;;;6.38;47.08
47726;BME280;33483;48.294;16.388;2023-04-05T07:43:20;100192.28;;;8.28;42.23
47726;BME280;33483;48.294;16.388;2023-04-05T07:45:51;100211.53;;;10.03;39.68
47726;BME280;33483;48.294;16.388;2023-04-05T07:48:22;100215.25;;;11.25;36.81
47726;BME280;33483;48.294;16.388;2023-04-05T07:50:49;100212.09;;;12.42;33.99
47726;BME280;33483;48.294;16.388;2023-04-05T07:53:18;100215.88;;;13.00;31.87
47726;BME280;33483;48.294;16.388;2023-04-05T07:55:45;100214.50;;;11.84;32.38
47726;BME280;33483;48.294;16.388;2023-04-05T07:58:12;100215.50;;;10.35;35.21
47726;BME280;33483;48.294;16.388;2023-04-05T08:00:40;100213.59;;;9.86;34.83
47726;BME280;33483;48.294;16.388;2023-04-05T08:03:08;100208.38;;;11.67;33.37
47726;BME280;33483;48.294;16.388;2023-04-05T08:05:35;100216.25;;;12.54;31.74
47726;BME280;33483;48.294;16.388;2023-04-05T08:08:02;100214.06;;;12.84;30.25
47726;BME280;33483;48.294;16.388;2023-04-05T08:10:37;100216.09;;;13.02;30.60
47726;BME280;33483;48.294;16.388;2023-04-05T08:13:04;100216.41;;;12.99;29.78
47726;BME280;33483;48.294;16.388;2023-04-05T08:15:36;100212.09;;;13.16;29.90
47726;BME280;33483;48.294;16.388;2023-04-05T08:18:03;100203.28;;;13.31;29.54
47726;BME280;33483;48.294;16.388;2023-04-05T08:20:33;100199.50;;;12.41;30.72
47726;BME280;33483;48.294;16.388;2023-04-05T08:23:05;100196.41;;;12.44;30.93
47726;BME280;33483;48.294;16.388;2023-04-05T08:25:33;100199.50;;;12.41;30.92
47726;BME280;33483;48.294;16.388;2023-04-05T08:28:00;100198.59;;;12.70;30.76
47726;BME280;33483;48.294;16.388;2023-04-05T08:30:27;100195.34;;;12.66;31.53
47726;BME280;33483;48.294;16.388;2023-04-05T08:32:54;100190.22;;;13.39;29.86
47726;BME280;33483;48.294;16.388;2023-04-05T08:35:21;100180.78;;;13.87;31.11
47726;BME280;33483;48.294;16.388;2023-04-05T08:37:49;100184.41;;;14.73;29.48
47726;BME280;33483;48.294;16.388;2023-04-05T08:40:16;100181.13;;;14.35;29.15
47726;BME280;33483;48.294;16.388;2023-04-05T08:43:09;100184.75;;;14.04;28.85
47726;BME280;33483;48.294;16.388;2023-04-05T08:45:31;100176.88;;;13.50;30.73
47726;BME280;33483;48.294;16.388;2023-04-05T08:48:00;100185.72;;;13.04;30.14
47726;BME280;33483;48.294;16.388;2023-04-05T08:50:29;100173.59;;;13.20;30.37
47726;BME280;33483;48.294;16.388;2023-04-05T08:52:56;100177.53;;;12.93;31.49
47726;BME280;33483;48.294;16.388;2023-04-05T08:55:24;100174.78;;;13.70;30.78
47726;BME280;33483;48.294;16.388;2023-04-05T08:57:53;100163.91;;;13.08;30.01
47726;BME280;33483;48.294;16.388;2023-04-05T09:00:28;100173.19;;;12.42;30.75
47726;BME280;33483;48.294;16.388;2023-04-05T09:03:01;100166.03;;;11.85;31.38
47726;BME280;33483;48.294;16.388;2023-04-05T09:05:29;100160.97;;;12.08;31.84
47726;BME280;33483;48.294;16.388;2023-04-05T09:07:57;100163.09;;;12.95;30.57
47726;BME280;33483;48.294;16.388;2023-04-05T09:10:24;100164.63;;;12.59;31.64
47726;BME280;33483;48.294;16.388;2023-04-05T09:12:52;100161.44;;;11.04;33.57
47726;BME280;33483;48.294;16.388;2023-04-05T09:18:57;100137.03;;;7.69;38.46
47726;BME280;33483;48.294;16.388;2023-04-05T09:21:26;100145.47;;;8.94;38.03
47726;BME280;33483;48.294;16.388;2023-04-05T09:23:55;100144.50;;;9.31;36.12
47726;BME280;33483;48.294;16.388;2023-04-05T09:26:24;100137.94;;;9.23;37.10
47726;BME280;33483;48.294;16.388;2023-04-05T09:28:58;100135.25;;;10.07;35.98
47726;BME280;33483;48.294;16.388;2023-04-05T09:31:35;100128.88;;;9.33;37.17
47726;BME280;33483;48.294;16.388;2023-04-05T09:34:08;100116.59;;;8.68;37.82
47726;BME280;33483;48.294;16.388;2023-04-05T09:36:42;100119.88;;;8.99;37.30
47726;BME280;33483;48.294;16.388;2023-04-05T09:39:12;100130.88;;;8.61;37.77
47726;BME280;33483;48.294;16.388;2023-04-05T09:41:40;100119.59;;;9.14;36.53
47726;BME280;33483;48.294;16.388;2023-04-05T09:44:07;100116.31;;;9.38;37.05
47726;BME280;33483;48.294;16.388;2023-04-05T09:46:35;100119.50;;;9.69;35.50
47726;BME280;33483;48.294;16.388;2023-04-05T09:52:36;100113.50;;;9.60;34.51
47726;BME280;33483;48.294;16.388;2023-04-05T09:55:04;100101.66;;;9.76;34.52
47726;BME280;33483;48.294;16.388;2023-04-05T09:57:33;100098.75;;;8.74;35.31
47726;BME280;33483;48.294;16.388;2023-04-05T10:00:01;100104.03;;;8.94;36.53
47726;BME280;33483;48.294;16.388;2023-04-05T10:02:40;100092.94;;;8.45;35.92
47726;BME280;33483;48.294;16.388;2023-04-05T10:05:09;100100.44;;;8.28;35.79
47726;BME280;33483;48.294;16.388;2023-04-05T10:07:42;100094.94;;;8.50;36.76
47726;BME280;33483;48.294;16.388;2023-04-05T10:10:10;100088.63;;;8.27;35.67
47726;BME280;33483;48.294;16.388;2023-04-05T10:12:38;100099.50;;;8.97;35.15
47726;BME280;33483;48.294;16.388;2023-04-05T10:15:07;100092.88;;;8.23;33.58
47726;BME280;33483;48.294;16.388;2023-04-05T10:17:53;100087.03;;;8.10;33.74
47726;BME280;33483;48.294;16.388;2023-04-05T10:20:26;100083.81;;;7.58;34.20
47726;BME280;33483;48.294;16.388;2023-04-05T10:23:05;100084.50;;;8.00;33.85
47726;BME280;33483;48.294;16.388;2023-04-05T10:25:39;100074.13;;;8.76;33.42
47726;BME280;33483;48.294;16.388;2023-04-05T10:28:11;100067.81;;;9.20;32.49
47726;BME280;33483;48.294;16.388;2023-04-05T10:30:43;100080.16;;;8.91;33.33
47726;BME280;33483;48.294;16.388;2023-04-05T10:33:15;100073.59;;;8.39;34.98
47726;BME280;33483;48.294;16.388;2023-04-05T10:43:24;100060.28;;;8.43;37.05
47726;BME280;33483;48.294;16.388;2023-04-05T10:45:53;100062.25;;;8.32;36.82
47726;BME280;33483;48.294;16.388;2023-04-05T10:48:35;100062.22;;;8.21;36.49
47726;BME280;33483;48.294;16.388;2023-04-05T10:51:03;100060.84;;;7.83;36.17
47726;BME280;33483;48.294;16.388;2023-04-05T10:53:31;100051.09;;;7.87;37.61
47726;BME280;33483;48.294;16.388;2023-04-05T10:56:00;100059.03;;;7.63;36.41
47726;BME280;33483;48.294;16.388;2023-04-05T10:58:28;100066.53;;;7.63;36.57
47726;BME280;33483;48.294;16.388;2023-04-05T11:00:55;100055.66;;;7.43;36.63
47726;BME280;33483;48.294;16.388;2023-04-05T11:08:53;100048.56;;;7.84;37.07
47726;BME280;33483;48.294;16.388;2023-04-05T11:11:21;100053.47;;;7.58;36.58
47726;BME280;33483;48.294;16.388;2023-04-05T11:13:51;100051.16;;;8.15;36.33
47726;BME280;33483;48.294;16.388;2023-04-05T11:16:19;100038.94;;;8.38;35.93
47726;BME280;33483;48.294;16.388;2023-04-05T11:18:47;100047.50;;;8.51;35.69
47726;BME280;33483;48.294;16.388;2023-04-05T11:21:24;100033.69;;;8.51;34.56
47726;BME280;33483;48.294;16.388;2023-04-05T11:24:04;100049.16;;;8.16;35.27
47726;BME280;33483;48.294;16.388;2023-04-05T11:29:14;100049.00;;;8.85;35.01
47726;BME280;33483;48.294;16.388;2023-04-05T11:31:57;100046.56;;;9.72;34.91
47726;BME280;33483;48.294;16.388;2023-04-05T11:34:28;100041.69;;;9.89;32.11
47726;BME280;33483;48.294;16.388;2023-04-05T11:36:55;100039.75;;;9.73;32.20
47726;BME280;33483;48.294;16.388;2023-04-05T11:39:22;100042.41;;;9.33;32.11
47726;BME280;33483;48.294;16.388;2023-04-05T11:44:23;100025.38;;;8.84;32.72
47726;BME280;33483;48.294;16.388;2023-04-05T11:46:50;100035.69;;;8.84;33.50
47726;BME280;33483;48.294;16.388;2023-04-05T11:49:20;100045.00;;;8.64;33.30
47726;BME280;33483;48.294;16.388;2023-04-05T11:51:48;100026.13;;;8.41;34.48
47726;BME280;33483;48.294;16.388;2023-04-05T11:54:29;100031.66;;;8.24;33.86
47726;BME280;33483;48.294;16.388;2023-04-05T11:56:56;100032.44;;;8.52;34.43
47726;BME280;33483;48.294;16.388;2023-04-05T11:59:34;100018.09;;;8.48;33.91
47726;BME280;33483;48.294;16.388;2023-04-05T12:02:02;100024.38;;;8.32;34.37
47726;BME280;33483;48.294;16.388;2023-04-05T12:04:31;100017.53;;;8.11;34.96
47726;BME280;33483;48.294;16.388;2023-04-05T12:07:14;100018.34;;;8.45;34.39
47726;BME280;33483;48.294;16.388;2023-04-05T12:09:59;100019.38;;;8.64;34.36
47726;BME280;33483;48.294;16.388;2023-04-05T12:12:32;100010.06;;;8.89;34.69
47726;BME280;33483;48.294;16.388;2023-04-05T12:15:00;100007.00;;;8.98;35.52
47726;BME280;33483;48.294;16.388;2023-04-05T12:17:38;100011.25;;;9.27;35.09
47726;BME280;33483;48.294;16.388;2023-04-05T12:20:05;100007.31;;;8.61;33.85
47726;BME280;33483;48.294;16.388;2023-04-05T12:22:33;99999.00;;;8.28;33.79
47726;BME280;33483;48.294;16.388;2023-04-05T12:25:03;99999.41;;;7.88;34.54
47726;BME280;33483;48.294;16.388;2023-04-05T12:27:31;100007.75;;;8.10;34.01
47726;BME280;33483;48.294;16.388;2023-04-05T12:30:08;99994.94;;;8.02;34.17
47726;BME280;33483;48.294;16.388;2023-04-05T12:35:10;100000.69;;;8.09;35.13
47726;BME280;33483;48.294;16.388;2023-04-05T12:37:40;99999.44;;;7.99;34.67
47726;BME280;33483;48.294;16.388;2023-04-05T12:40:08;99996.69;;;8.05;35.88
47726;BME280;33483;48.294;16.388;2023-04-05T12:42:36;99997.69;;;7.96;34.78
47726;BME280;33483;48.294;16.388;2023-04-05T12:45:05;100002.47;;;8.18;35.13
47726;BME280;33483;48.294;16.388;2023-04-05T12:47:33;99994.75;;;8.49;33.50
47726;BME280;33483;48.294;16.388;2023-04-05T12:50:12;99991.75;;;8.75;33.31
47726;BME280;33483;48.294;16.388;2023-04-05T12:55:19;99986.72;;;8.73;34.29
47726;BME280;33483;48.294;16.388;2023-04-05T12:57:51;99982.94;;;8.54;34.10
47726;BME280;33483;48.294;16.388;2023-04-05T13:00:19;99984.97;;;8.43;33.99
47726;BME280;33483;48.294;16.388;2023-04-05T13:02:50;99988.13;;;7.97;33.74
47726;BME280;33483;48.294;16.388;2023-04-05T13:05:20;99978.31;;;7.79;33.99
47726;BME280;33483;48.294;16.388;2023-04-05T13:07:47;99976.91;;;8.23;35.48
47726;BME280;33483;48.294;16.388;2023-04-05T13:10:15;99979.19;;;8.41;35.31
47726;BME280;33483;48.294;16.388;2023-04-05T13:12:42;99969.91;;;8.44;36.23
47726;BME280;33483;48.294;16.388;2023-04-05T13:15:10;99963.88;;;8.45;36.78
47726;BME280;33483;48.294;16.388;2023-04-05T13:17:37;99970.63;;;8.44;35.65
47726;BME280;33483;48.294;16.388;2023-04-05T13:20:04;99975.94;;;8.31;36.16
47726;BME280;33483;48.294;16.388;2023-04-05T13:22:32;99973.13;;;8.04;35.62
47726;BME280;33483;48.294;16.388;2023-04-05T13:25:00;99972.06;;;7.90;35.90
47726;BME280;33483;48.294;16.388;2023-04-05T13:27:27;99978.81;;;7.83;35.80
47726;BME280;33483;48.294;16.388;2023-04-05T13:29:56;99978.06;;;7.83;36.20
47726;BME280;33483;48.294;16.388;2023-04-05T13:32:23;99971.06;;;7.82;38.07
47726;BME280;33483;48.294;16.388;2023-04-05T13:34:51;99976.88;;;8.06;36.79
47726;BME280;33483;48.294;16.388;2023-04-05T13:37:18;99976.63;;;8.21;35.61
47726;BME280;33483;48.294;16.388;2023-04-05T13:39:45;99980.94;;;8.27;35.94
47726;BME280;33483;48.294;16.388;2023-04-05T13:42:15;99982.16;;;8.15;35.85
47726;BME280;33483;48.294;16.388;2023-04-05T13:44:42;99971.34;;;8.00;35.15